Flight Track Log - Related Links

Times and Time Zones

All times are in EDT time to prevent confusion due to time zone crossing. See the EJA922 flight status page for this flight to view local times or setup timezone preferences in your user account.


Time Position Orientation Groundspeed Altitude Reporting Facility
EDT Latitude Longitude Course Direction KTS MPH feet Rate Location/Type
Sun 03:27:21 PM 41.5947 -83.9097 290° West 215 247 5,500  Level Cleveland Center
Sun 03:28:21 PM 41.6172 -83.9942 290° West 226 260 9,000 2,250 Climbing Cleveland Center
Sun 03:29:21 PM 41.6461 -84.0792 294° West 238 274 10,000 1,000 Climbing Cleveland Center
Sun 03:31:00 PM 41.6355 -83.7898 93° East  Level Estimated
Sun 03:38:00 PM 41.5825 -82.5633 93° East  Level Estimated
Sun 03:39:00 PM 41.5738 -82.3883 94° East  Level Estimated
Sun 03:40:00 PM 41.5649 -82.2133 94° East  Level Estimated
Sun 03:41:00 PM 41.5558 -82.0384 94° East  Level Estimated
Sun 03:42:00 PM 41.5463 -81.8635 94° East  Level Estimated
Sun 03:43:00 PM 41.5366 -81.6886 94° East  Level Estimated
Sun 03:44:00 PM 41.5267 -81.5138 94° East  Level Estimated
Sun 03:45:00 PM 41.5164 -81.3391 94° East  Level Estimated
Sun 03:46:00 PM 41.5060 -81.1644 95° East  Level Estimated
Sun 03:47:00 PM 41.4952 -80.9898 95° East  Level Estimated
Sun 03:48:00 PM 41.4842 -80.8152 95° East  Level Estimated
Sun 03:49:00 PM 41.4729 -80.6407 95° East  Level Estimated
Sun 03:50:00 PM 41.4613 -80.4663 95° East  Level Estimated
Sun 03:51:00 PM 41.4495 -80.2919 95° East  Level Estimated
Sun 03:52:00 PM 41.4375 -80.1176 95° East  Level Estimated
Sun 03:53:00 PM 41.4251 -79.9434 95° East  Level Estimated
Sun 03:54:00 PM 41.4125 -79.7692 95° East  Level Estimated
Sun 03:55:00 PM 41.3997 -79.5951 96° East  Level Estimated
Sun 03:56:00 PM 41.3865 -79.4210 96° East  Level Estimated
Sun 03:57:00 PM 41.3731 -79.2471 96° East  Level Estimated
Sun 03:58:00 PM 41.3595 -79.0732 96° East  Level Estimated
Sun 03:59:00 PM 41.3456 -78.8994 96° East  Level Estimated
Sun 04:00:00 PM 41.3314 -78.7256 96° East  Level Estimated
Sun 04:01:00 PM 41.3170 -78.5519 96° East  Level Estimated
Sun 04:02:00 PM 41.3023 -78.3783 96° East  Level Estimated
Sun 04:03:00 PM 41.2873 -78.2048 96° East  Level Estimated
Sun 04:04:00 PM 41.2721 -78.0314 97° East  Level Estimated
Sun 04:05:00 PM 41.2566 -77.8580 97° East  Level Estimated
Sun 04:06:00 PM 41.2409 -77.6848 97° East  Level Estimated
Sun 04:07:00 PM 41.2249 -77.5116 97° East  Level Estimated
Sun 04:08:00 PM 41.2086 -77.3385 97° East  Level Estimated
Sun 04:09:00 PM 41.1921 -77.1655 97° East  Level Estimated
Sun 04:10:00 PM 41.1754 -76.9925 97° East  Level Estimated
Sun 04:11:00 PM 41.1583 -76.8197 97° East  Level Estimated
Sun 04:12:00 PM 41.1410 -76.6469 98° East  Level Estimated
Sun 04:13:00 PM 41.1235 -76.4743 98° East  Level Estimated
Sun 04:14:00 PM 41.1057 -76.3017 98° East  Level Estimated
Sun 04:15:00 PM 41.0876 -76.1292 98° East  Level Estimated
Sun 04:16:00 PM 41.0693 -75.9569 98° East  Level Estimated
Sun 04:17:00 PM 41.0507 -75.7846 98° East  Level Estimated
Sun 04:18:00 PM 41.0319 -75.6124 98° East  Level Estimated
Sun 04:19:00 PM 41.0128 -75.4403 98° East  Level Estimated
Sun 04:20:00 PM 40.9935 -75.2683 98° East  Level Estimated
Sun 04:21:00 PM 40.9739 -75.0965 99° East  Level Estimated
Sun 04:22:00 PM 40.9540 -74.9247 99° East  Level Estimated
Sun 04:23:00 PM 40.9339 -74.7530 99° East  Level Estimated
Sun 04:24:00 PM 40.9135 -74.5815 99° East  Level Estimated
Sun 04:25:00 PM 40.8929 -74.4100 99° East  Level Estimated
Sun 04:26:00 PM 40.8721 -74.2386 99° East  Level Estimated
Sun 04:27:00 PM 40.8509 -74.0674 99° East  Level Estimated
Sun 04:28:00 PM 40.8501 -74.0608 99° East  Level Estimated
Sun 04:29:00 PM 40.8501 -74.0608 65° Northeast  Level Estimated
Sun 04:30:00 PM 40.8501 -74.0608 65° Northeast  Level Estimated

Login

Don't have an account? Register now (free) for customized features, flight alerts, and more!